Metar Cercanos

 

LEPA - Palma De Mallorc, Spain
Distance from station: ONO 38km
Actualización: Tue, 25-Jan-2022 3:00pm CET
Few Clouds
Few Clouds
 Viento del ENE
Viento: ENE 15 km/h
Temperatura: 15°C
Rocío: 7°C
Humedad: 59%
Barómetro: 1031 hPa
Clouds: Few Clouds
Visibility: 10 km
Cloud details: Few Clouds 671 m
2022/01/25 14:00 LEPA 251400Z 06008KT 020V080 9999 FEW022 15/07 Q1031 NOSIG
LEMH - Mahon/Menorca Is, Spain
Distance from station: ENE 105km
Actualización: Tue, 25-Jan-2022 3:00pm CET
Parcialmente nuboso
Parcialmente nuboso
 Viento del NE
Viento: NE 13 km/h
Temperatura: 12°C
Rocío: 6°C
Humedad: 67%
Barómetro: 1031 hPa
Clouds: Parcialmente nuboso
Visibility: 10 km
Cloud details: Parcialmente nuboso 823 m
2022/01/25 14:00 LEMH 251400Z 05007KT 020V080 9999 SCT027 12/06 Q1031
 
LEIB - Ibiza/Es Codola, Spain
Distance from station: OSO 165km
Actualización: Tue, 25-Jan-2022 3:00pm CET
Muy nuboso
Muy nuboso
 Viento del ENE
Viento: ENE 20 km/h
Temperatura: 14°C
Rocío: 8°C
Humedad: 67%
Barómetro: 1031 hPa
Clouds: Muy nuboso
Visibility: 10 km
Cloud details: Parcialmente nuboso 732 m
Muy nuboso 853 m
2022/01/25 14:00 LEIB 251400Z 06011KT 9999 SCT024 BKN028 14/08 Q1031 NOSIG
LEBL - Barcelona Airpor, Spain
Distance from station: NNO 225km
Actualización: Tue, 25-Jan-2022 3:00pm CET
Few Clouds
Few Clouds
 Viento del S
Viento: S 11 km/h
Temperatura: 13°C
Rocío: 7°C
Humedad: 67%
Barómetro: 1032 hPa
Clouds: Few Clouds
Visibility: 10 km
Cloud details: Few Clouds 914 m
2022/01/25 14:00 LEBL 251400Z 19006KT 160V220 9999 FEW030 13/07 Q1032 NOSIG
 
LEVC - Valencia (civ/Mi, Spain
Distance from station: NO 188km
Actualización: Tue, 25-Jan-2022 3:00pm CET
Muy nuboso
Muy nuboso
 Viento del ENE
Viento: ENE 20 km/h
Temperatura: 13°C
Rocío: 8°C
Humedad: 72%
Barómetro: 1032 hPa
Clouds: Muy nuboso
Visibility: 10 km
Cloud details: Muy nuboso 762 m
2022/01/25 14:00 LEVC 251400Z 07011KT 050V120 9999 BKN025 13/08 Q1032 NOSIG
LEGE - Gerona/Costa Bra, Spain
Distance from station: N 276km
Actualización: Tue, 25-Jan-2022 3:00pm CET
Despejado
Despejado
 Viento del S
Viento: S 7 km/h
Temperatura: 14°C
Rocío: 7°C
Humedad: 63%
Barómetro: 1031 hPa
Resumen: Despejado
Visibility: greater than 10 km
2022/01/25 14:00 LEGE 251400Z 18004KT 120V260 CAVOK 14/07 Q1031
 
LEAL - Alicante/El Alte, Spain
Distance from station: OSO 344km
Actualización: Tue, 25-Jan-2022 3:00pm CET
Muy nuboso
Muy nuboso
 Viento del ENE
Viento: ENE 28 km/h
Temperatura: 14°C
Rocío: 8°C
Humedad: 67%
Barómetro: 1030 hPa
Clouds: Muy nuboso
Visibility: 10 km
Cloud details: Muy nuboso 1524 m
2022/01/25 14:00 LEAL 251400Z 07015KT 9999 BKN050 14/08 Q1030 NOSIG
LEAM - Almeria Airport, Spain
Distance from station: SSO 56km
Actualización: Tue, 25-Jan-2022 3:00pm CET
Few Clouds
Few Clouds
 Viento del ENE
Viento: ENE 39 km/h, Racha: 61 km/h
Temperatura: 17°C
Rocío: 6°C
Humedad: 49%
Barómetro: 1027 hPa
Clouds: Few Clouds
Visibility: 10 km
Cloud details: Few Clouds 1219 m
2022/01/25 14:00 LEAM 251400Z 07021G33KT 040V100 9999 FEW040 17/06 Q1027
 
LEZG - Zaragoza (mil/Ci, Spain
Distance from station: NO 431km
Actualización: Tue, 25-Jan-2022 3:00pm CET
Despejado
Despejado
 Viento del calm
Viento: Calma
Temperatura: 10°C
Rocío: 3°C
Humedad: 62%
Barómetro: 1032 hPa
Resumen: Despejado
Visibility: greater than 10 km
2022/01/25 14:00 LEZG 251400Z 00000KT CAVOK 10/03 Q1032
LEMD - Madrid/Barajas, Spain
Distance from station: ONO 234km
Actualización: Tue, 25-Jan-2022 3:00pm CET
Muy nuboso
Muy nuboso
 Viento del varies
Viento: varies 2 km/h
Temperatura: 10°C
Rocío: 2°C
Humedad: 58%
Barómetro: 1029 hPa
Clouds: Muy nuboso
Visibility: 10 km
Cloud details: Muy nuboso 1189 m
2022/01/25 14:00 LEMD 251400Z VRB01KT 9999 BKN039 10/02 Q1029 NOSIG
 
LEGR - Granada Airport, Spain
Distance from station: OSO 62km
Actualización: Tue, 25-Jan-2022 3:00pm CET
Parcialmente nuboso
Parcialmente nuboso
 Viento del varies
Viento: varies 4 km/h
Temperatura: 14°C
Rocío: 3°C
Humedad: 48%
Barómetro: 1025 hPa
Clouds: Parcialmente nuboso
Visibility: 10 km
Cloud details: Few Clouds 1219 m
Parcialmente nuboso 3048 m
2022/01/25 14:00 LEGR 251400Z VRB02KT 9999 FEW040 SCT100 14/03 Q1025
LEMG - Malaga (civ/Mil), Spain
Distance from station: OSO 227km
Actualización: Tue, 25-Jan-2022 3:00pm CET
Muy nuboso
Muy nuboso
 Viento del ESE
Viento: ESE 33 km/h
Temperatura: 15°C
Rocío: 10°C
Humedad: 72%
Barómetro: 1026 hPa
Clouds: Muy nuboso
Visibility: 10 km
Cloud details: Muy nuboso 1829 m
Muy nuboso 2103 m
2022/01/25 14:00 LEMG 251400Z 11018KT 070V140 9999 BKN060 BKN069 15/10 Q1026 NOSIG
 
LEZL - Sevilla (civ/Mil, Spain
Distance from station: S 318km
Actualización: Tue, 25-Jan-2022 3:00pm CET
Despejado
Despejado
 Viento del E
Viento: E 20 km/h
Temperatura: 16°C
Rocío: 5°C
Humedad: 48%
Barómetro: 1025 hPa
Resumen: Despejado
Visibility: greater than 10 km
2022/01/25 14:00 LEZL 251400Z 09011KT 050V110 CAVOK 16/05 Q1025 NOSIG
LEVT - Vitoria, Spain
Distance from station: NO 226km
Actualización: Tue, 25-Jan-2022 3:00pm CET
Despejado
Despejado
 Viento del SSO
Viento: SSO 4 km/h
Temperatura: 9°C
Rocío: 2°C
Humedad: 62%
Barómetro: 1031 hPa
Resumen: Despejado
Visibility: greater than 10 km
2022/01/25 14:00 LEVT 251400Z 21002KT CAVOK 09/02 Q1031
 
LEBB - Bilbao/Sondica, Spain
Distance from station: NNO 235km
Actualización: Tue, 25-Jan-2022 3:00pm CET
Despejado
Despejado
 Viento del varies
Viento: varies 9 km/h
Temperatura: 16°C
Rocío: 3°C
Humedad: 42%
Barómetro: 1031 hPa
Resumen: Despejado
Visibility: greater than 10 km
2022/01/25 14:00 LEBB 251400Z VRB05KT CAVOK 16/03 Q1031 NOSIG
LESO - San Sebastian/Fu, Spain
Distance from station: N 231km
Actualización: Tue, 25-Jan-2022 3:00pm CET
Despejado
Despejado
 Viento del N
Viento: N 13 km/h
Temperatura: 13°C
Rocío: 7°C
Humedad: 67%
Barómetro: 1031 hPa
Resumen: Despejado
Visibility: greater than 10 km
2022/01/25 14:00 LESO 251400Z 35007KT 310V040 CAVOK 13/07 Q1031
 
LEVD - Valladolid(Mil/C, Spain
Distance from station: ONO 239km
Actualización: Tue, 25-Jan-2022 3:00pm CET
Few Clouds
Few Clouds
 Viento del varies
Viento: varies 4 km/h
Temperatura: 9°C
Rocío: -1°C
Humedad: 50%
Barómetro: 1029 hPa
Clouds: Few Clouds
Visibility: 10 km
Cloud details: Few Clouds 1067 m
2022/01/25 14:00 LEVD 251400Z VRB02KT 9999 FEW035 09/M01 Q1029
LESA - Salamanca (civ/M, Spain
Distance from station: ONO 349km
Actualización: Tue, 25-Jan-2022 3:00pm CET
Muy nuboso
Muy nuboso
 Viento del SE
Viento: SE 17 km/h
Temperatura: 10°C
Sensación frio: 8°C
Rocío: 1°C
Humedad: 54%
Barómetro: 1028 hPa
Clouds: Muy nuboso
Visibility: 10 km
Cloud details: Muy nuboso 1280 m
2022/01/25 14:00 LESA 251400Z 13009KT 080V160 9999 BKN042 10/01 Q1028
 
LEXJ - Santander/Paraya, Spain
Distance from station: NNO 247km
Actualización: Tue, 25-Jan-2022 3:00pm CET
Despejado
Despejado
 Viento del NNE
Viento: NNE 7 km/h
Temperatura: 12°C
Rocío: 8°C
Humedad: 77%
Barómetro: 1031 hPa
Resumen: Despejado
Visibility: greater than 10 km
2022/01/25 14:00 LEXJ 251400Z 03004KT 350V070 CAVOK 12/08 Q1031
LEAS - Asturias/Aviles, Spain
Distance from station: NO 214km
Actualización: Tue, 25-Jan-2022 3:00pm CET
Few Clouds
Few Clouds
 Viento del N
Viento: N 7 km/h
Temperatura: 11°C
Rocío: 7°C
Humedad: 77%
Barómetro: 1031 hPa
Clouds: Few Clouds
Visibility: 10 km
Cloud details: Few Clouds 853 m
2022/01/25 14:00 LEAS 251400Z 01004KT 290V090 9999 FEW028 11/07 Q1031 NOSIG
 
LECO - La Coruna/Alvedr, Spain
Distance from station: ONO 222km
Actualización: Tue, 25-Jan-2022 3:00pm CET
Despejado
Despejado
 Viento del N
Viento: N 7 km/h
Temperatura: 13°C
Rocío: 5°C
Humedad: 59%
Barómetro: 1030 hPa
Resumen: Despejado
Visibility: greater than 10 km
2022/01/25 14:00 LECO 251400Z 01004KT 340V040 CAVOK 13/05 Q1030 NOSIG
LEVX - Vigo/Peinador, Spain
Distance from station: O 214km
Actualización: Tue, 25-Jan-2022 3:00pm CET
Despejado
Despejado
 Viento del varies
Viento: varies 4 km/h
Temperatura: 15°C
Rocío: 5°C
Humedad: 51%
Barómetro: 1029 hPa
Resumen: Despejado
Visibility: greater than 10 km
2022/01/25 14:00 LEVX 251400Z VRB02KT CAVOK 15/05 Q1029 NOSIG